Time;durP1;ratioP1;P1;durP2;ratioP2;P2;SDS_P1;SDS_P2;PMS_P1;PMS_P2;Temp;Humidity;BMP_temperature;BMP_pressure;BME280_temperature;BME280_humidity;BME280_pressure;Samples;Min_cycle;Max_cycle;Signal;HPM_P1;HPM_P2
2022/07/31 00:00:59;;;;;;;11.80;5.65;;;;;;;18.98;100.00;101895.88;7396617;19;20011;-80
2022/07/31 00:03:29;;;;;;;13.20;5.45;;;;;;;19.01;100.00;101899.41;7402169;19;20010;-80
2022/07/31 00:06:00;;;;;;;14.60;5.97;;;;;;;19.01;100.00;101893.22;7408911;19;20021;-79
2022/07/31 00:08:34;;;;;;;11.13;6.82;;;;;;;19.02;100.00;101884.34;7408364;19;20019;-79
2022/07/31 00:11:10;;;;;;;13.27;6.40;;;;;;;19.06;100.00;101894.06;7403776;19;20021;-80
2022/07/31 00:13:41;;;;;;;13.30;6.20;;;;;;;19.05;100.00;101879.91;7407575;19;20019;-79
2022/07/31 00:16:27;;;;;;;16.83;6.75;;;;;;;19.06;100.00;101879.00;7409458;19;20304;-80
2022/07/31 00:19:00;;;;;;;10.48;5.80;;;;;;;19.08;100.00;101869.25;7407719;19;20018;-81
2022/07/31 00:21:32;;;;;;;14.77;5.95;;;;;;;19.09;100.00;101873.66;7409864;19;20062;-79
2022/07/31 00:24:04;;;;;;;11.90;6.05;;;;;;;19.10;100.00;101871.91;7400635;19;20063;-79
2022/07/31 00:26:38;;;;;;;14.32;6.25;;;;;;;19.08;100.00;101871.91;7393843;19;20017;-80
2022/07/31 00:29:09;;;;;;;13.82;7.18;;;;;;;19.04;100.00;101867.50;7390850;19;20017;-79
2022/07/31 00:31:48;;;;;;;13.75;7.10;;;;;;;19.04;100.00;101872.81;7393124;19;20452;-80
2022/07/31 00:34:19;;;;;;;15.93;6.55;;;;;;;19.04;100.00;101867.50;7399128;19;20021;-79
2022/07/31 00:36:51;;;;;;;12.73;6.20;;;;;;;19.03;100.00;101863.06;7400274;19;20021;-78
2022/07/31 00:39:23;;;;;;;14.82;7.10;;;;;;;19.00;100.00;101867.53;7393316;19;20025;-78
2022/07/31 00:42:00;;;;;;;15.15;7.35;;;;;;;18.99;100.00;101853.34;7390594;19;20045;-77
2022/07/31 00:44:31;;;;;;;14.57;8.20;;;;;;;18.98;100.00;101859.53;7390390;19;20014;-77
2022/07/31 00:47:03;;;;;;;14.75;6.90;;;;;;;18.98;100.00;101856.88;7393714;19;20015;-79
2022/07/31 00:49:35;;;;;;;19.98;7.53;;;;;;;18.92;100.00;101863.13;7401401;19;20469;-75
2022/07/31 00:52:11;;;;;;;11.20;6.30;;;;;;;18.95;100.00;101868.41;7396532;19;20010;-76
2022/07/31 00:54:41;;;;;;;14.73;7.20;;;;;;;18.97;100.00;101857.78;7392352;19;20017;-78
2022/07/31 00:57:14;;;;;;;15.68;6.65;;;;;;;18.97;100.00;101844.50;7397188;19;20204;-78
2022/07/31 00:59:45;;;;;;;13.25;7.18;;;;;;;18.93;100.00;101842.75;7402847;19;20013;-80
2022/07/31 01:02:17;;;;;;;12.60;7.13;;;;;;;18.91;100.00;101841.88;7403940;19;20014;-80
2022/07/31 01:04:47;;;;;;;16.33;7.18;;;;;;;18.86;100.00;101836.56;7407762;19;20090;-78
2022/07/31 01:07:21;;;;;;;13.27;6.22;;;;;;;18.87;100.00;101826.81;7409935;19;20025;-81
2022/07/31 01:09:55;;;;;;;12.98;6.18;;;;;;;18.88;100.00;101829.47;7403901;19;20475;-79
2022/07/31 01:12:35;;;;;;;12.60;6.25;;;;;;;18.88;100.00;101839.22;7404399;19;20106;-81
2022/07/31 01:15:22;;;;;;;12.35;7.22;;;;;;;18.88;100.00;101839.22;7410819;19;20082;-79
2022/07/31 01:17:56;;;;;;;17.85;7.47;;;;;;;18.88;100.00;101841.88;7415608;19;20010;-81
2022/07/31 01:20:28;;;;;;;12.73;6.05;;;;;;;18.91;100.00;101849.84;7412380;19;20010;-79
2022/07/31 01:23:15;;;;;;;13.27;6.03;;;;;;;18.91;100.00;101840.09;7406174;19;20033;-80
2022/07/31 01:26:00;;;;;;;11.50;5.50;;;;;;;18.89;100.00;101835.66;7397932;19;20017;-80
2022/07/31 01:28:54;;;;;;;18.92;6.35;;;;;;;18.90;100.00;101840.97;7407350;19;20022;-78
2022/07/31 01:31:32;;;;;;;11.65;5.45;;;;;;;18.89;100.00;101844.53;7413175;19;20007;-78
2022/07/31 01:34:12;;;;;;;11.27;5.47;;;;;;;18.88;100.00;101837.44;7411953;19;20010;-79
2022/07/31 01:36:51;;;;;;;11.35;5.75;;;;;;;18.90;100.00;101838.31;7402448;19;20010;-78
2022/07/31 01:39:28;;;;;;;10.98;5.30;;;;;;;18.92;100.00;101835.66;7398406;19;20048;-79
2022/07/31 01:42:12;;;;;;;12.50;5.90;;;;;;;18.89;100.00;101835.66;7406184;19;20036;-80
2022/07/31 01:44:51;;;;;;;12.35;5.88;;;;;;;18.91;100.00;101828.56;7410104;19;20101;-79
2022/07/31 01:47:24;;;;;;;11.07;5.00;;;;;;;18.90;100.00;101832.13;7411460;19;20028;-76
2022/07/31 01:50:00;;;;;;;8.20;4.53;;;;;;;18.86;100.00;101838.34;7408228;19;20047;-79
2022/07/31 01:52:33;;;;;;;11.77;4.90;;;;;;;18.83;100.00;101827.72;7398823;19;20078;-78
2022/07/31 01:55:05;;;;;;;12.55;4.70;;;;;;;18.83;100.00;101822.41;7401361;19;20050;-80
2022/07/31 01:57:36;;;;;;;9.40;4.70;;;;;;;18.81;100.00;101819.75;7405615;19;20011;-80
2022/07/31 02:00:11;;;;;;;11.20;4.28;;;;;;;18.81;100.00;101824.19;7411700;19;20014;-79
2022/07/31 02:03:02;;;;;;;11.60;4.28;;;;;;;18.79;100.00;101813.56;7407570;19;20039;-79
2022/07/31 02:05:42;;;;;;;12.35;4.45;;;;;;;18.79;100.00;101816.22;7404900;19;20562;-78
2022/07/31 02:08:15;;;;;;;7.85;3.90;;;;;;;18.78;100.00;101810.91;7400982;19;20014;-79
2022/07/31 02:10:47;;;;;;;10.55;5.07;;;;;;;18.75;100.00;101802.97;7399859;19;20002;-79
2022/07/31 02:13:21;;;;;;;14.60;5.43;;;;;;;18.75;100.00;101802.97;7405724;19;20014;-79
2022/07/31 02:15:59;;;;;;;14.75;5.22;;;;;;;18.75;100.00;101798.53;7410769;19;20077;-78
2022/07/31 02:18:35;;;;;;;9.27;5.30;;;;;;;18.75;100.00;101795.88;7401938;19;20018;-78
2022/07/31 02:21:06;;;;;;;11.85;5.20;;;;;;;18.76;100.00;101787.00;7400916;19;20409;-78
2022/07/31 02:23:38;;;;;;;12.50;6.18;;;;;;;18.76;100.00;101791.44;7402326;19;20062;-79
2022/07/31 02:26:09;;;;;;;9.82;5.60;;;;;;;18.78;100.00;101784.34;7395535;19;20022;-79
2022/07/31 02:28:43;;;;;;;10.65;5.57;;;;;;;18.75;100.00;101784.38;7409102;19;20014;-79
2022/07/31 02:31:18;;;;;;;13.23;7.72;;;;;;;18.75;100.00;101789.69;7408532;19;20020;-80
2022/07/31 02:33:55;;;;;;;12.85;6.55;;;;;;;18.75;100.00;101789.69;7404898;19;20014;-79
2022/07/31 02:36:27;;;;;;;16.70;8.35;;;;;;;18.74;100.00;101794.09;7407209;19;20010;-79
2022/07/31 02:39:04;;;;;;;14.48;5.90;;;;;;;18.73;100.00;101781.72;7406381;19;20031;-78
2022/07/31 02:41:37;;;;;;;11.63;5.22;;;;;;;18.72;100.00;101779.94;7407028;19;20011;-79
2022/07/31 02:44:09;;;;;;;12.05;5.57;;;;;;;18.69;100.00;101785.31;7412402;19;20002;-79
2022/07/31 02:46:43;;;;;;;11.93;5.15;;;;;;;18.69;100.00;101785.31;7408161;19;20011;-79
2022/07/31 02:49:21;;;;;;;12.10;4.88;;;;;;;18.67;100.00;101789.75;7408071;19;20354;-79
2022/07/31 02:51:54;;;;;;;10.38;5.18;;;;;;;18.66;100.00;101795.94;7406694;19;20023;-79
2022/07/31 02:54:26;;;;;;;8.57;4.93;;;;;;;18.66;100.00;101795.94;7405932;19;20025;-78
2022/07/31 02:56:58;;;;;;;12.40;5.38;;;;;;;18.66;100.00;101787.09;7407318;19;20157;-77
2022/07/31 02:59:30;;;;;;;8.43;4.47;;;;;;;18.61;100.00;101782.69;7406694;19;20014;-79
2022/07/31 03:02:03;;;;;;;11.30;5.03;;;;;;;18.63;100.00;101771.16;7405020;19;20021;-79
2022/07/31 03:04:36;;;;;;;11.98;4.60;;;;;;;18.65;100.00;101772.06;7407231;19;20011;-78
2022/07/31 03:07:06;;;;;;;10.40;4.93;;;;;;;18.62;100.00;101767.63;7406738;19;20007;-79
2022/07/31 03:09:36;;;;;;;11.40;4.32;;;;;;;18.61;100.00;101758.78;7410450;19;20017;-80
2022/07/31 03:12:13;;;;;;;11.23;4.78;;;;;;;18.62;100.00;101757.00;7406508;19;20006;-78
2022/07/31 03:14:45;;;;;;;10.27;4.90;;;;;;;18.64;100.00;101764.97;7402637;19;20014;-80
2022/07/31 03:17:19;;;;;;;11.73;4.50;;;;;;;18.60;100.00;101757.00;7399784;19;20018;-80
2022/07/31 03:20:08;;;;;;;8.93;4.70;;;;;;;18.58;100.00;101765.84;7405145;19;20011;-79
2022/07/31 03:22:39;;;;;;;14.77;5.25;;;;;;;18.56;100.00;101765.84;7411935;19;20007;-78
2022/07/31 03:25:13;;;;;;;9.52;4.70;;;;;;;18.59;100.00;101773.81;7411594;19;20006;-78
2022/07/31 03:27:56;;;;;;;12.02;5.38;;;;;;;18.59;100.00;101772.94;7406882;19;20022;-78
2022/07/31 03:30:28;;;;;;;10.10;4.90;;;;;;;18.56;100.00;101764.97;7400822;19;20010;-80
2022/07/31 03:33:05;;;;;;;10.18;5.32;;;;;;;18.52;100.00;101769.41;7398420;19;20354;-78
2022/07/31 03:35:35;;;;;;;11.40;6.07;;;;;;;18.50;100.00;101768.53;7406735;19;20455;-79
2022/07/31 03:38:16;;;;;;;11.45;5.53;;;;;;;18.51;100.00;101759.69;7412655;19;20010;-80
2022/07/31 03:41:07;;;;;;;14.63;5.47;;;;;;;18.51;100.00;101778.28;7411992;19;20025;-80
2022/07/31 03:43:37;;;;;;;9.93;4.95;;;;;;;18.55;100.00;101774.72;7404749;19;20011;-81
2022/07/31 03:46:18;;;;;;;13.10;5.35;;;;;;;18.54;100.00;101764.09;7398316;19;20039;-80
2022/07/31 03:48:54;;;;;;;10.68;5.38;;;;;;;18.54;100.00;101762.31;7403971;19;20040;-81
2022/07/31 03:51:26;;;;;;;;;;;;;;;18.56;100.00;101759.66;7411871;19;20033;-79
2022/07/31 03:53:57;;;;;;;12.23;6.38;;;;;;;18.52;100.00;101764.09;7409270;19;19926;-79
2022/07/31 03:56:29;;;;;;;12.23;5.28;;;;;;;18.56;100.00;101757.88;7408667;19;20010;-79
2022/07/31 03:59:03;;;;;;;12.00;5.77;;;;;;;18.55;100.00;101757.91;7397819;19;20014;-79
2022/07/31 04:01:36;;;;;;;10.90;5.15;;;;;;;18.54;100.00;101753.47;7400194;19;20022;-81
2022/07/31 04:04:31;;;;;;;11.32;6.15;;;;;;;18.52;100.00;101748.16;7406620;19;20010;-78
2022/07/31 04:07:05;;;;;;;14.18;6.70;;;;;;;18.56;100.00;101757.00;7408728;19;20007;-79
2022/07/31 04:09:38;;;;;;;23.17;8.70;;;;;;;18.54;100.00;101749.03;7409264;19;20180;-80
2022/07/31 04:12:18;;;;;;;17.52;8.30;;;;;;;18.55;100.00;101745.50;7397985;19;20014;-79
2022/07/31 04:14:50;;;;;;;19.20;7.90;;;;;;;18.56;100.00;101752.56;7401685;19;20023;-80
2022/07/31 04:17:21;;;;;;;15.50;8.23;;;;;;;18.52;100.00;101745.50;7405577;19;20023;-79
2022/07/31 04:19:56;;;;;;;17.23;8.10;;;;;;;18.47;100.00;101744.66;7408710;19;20049;-78
2022/07/31 04:22:29;;;;;;;15.73;7.32;;;;;;;18.54;100.00;101742.84;7410247;19;20039;-79
2022/07/31 04:24:59;;;;;;;17.60;7.88;;;;;;;18.55;100.00;101744.63;7407806;19;20066;-79
2022/07/31 04:27:30;;;;;;;16.00;7.55;;;;;;;18.54;100.00;101738.41;7395872;19;20074;-78
2022/07/31 04:30:07;;;;;;;15.40;7.75;;;;;;;18.57;100.00;101732.19;7402698;19;20510;-80
2022/07/31 04:32:39;;;;;;;17.77;8.23;;;;;;;18.55;100.00;101741.97;7404394;19;20014;-80
2022/07/31 04:35:13;;;;;;;17.88;8.00;;;;;;;18.54;100.00;101741.06;7408277;19;20010;-79
2022/07/31 04:37:43;;;;;;;19.13;8.10;;;;;;;18.51;100.00;101740.22;7404678;19;20550;-79
2022/07/31 04:40:20;;;;;;;25.27;10.93;;;;;;;18.54;100.00;101743.72;7403385;19;20046;-80
2022/07/31 04:42:54;;;;;;;;;;;;;;;18.55;100.00;101747.28;7410549;19;20015;-80
2022/07/31 04:45:29;;;;;;;22.05;9.93;;;;;;;18.57;100.00;101735.75;7415648;19;19939;-79
2022/07/31 04:48:03;;;;;;;21.50;9.50;;;;;;;18.57;100.00;101742.84;7417370;19;20017;-78
2022/07/31 04:50:35;;;;;;;;;;;;;;;18.57;100.00;101738.41;7415245;19;20040;-79
2022/07/31 04:53:06;;;;;;;21.27;9.68;;;;;;;18.59;100.00;101731.31;7403510;19;19968;-80
2022/07/31 04:55:36;;;;;;;25.95;10.25;;;;;;;18.60;100.00;101721.56;7410013;19;20006;-80
2022/07/31 04:58:06;;;;;;;27.70;11.27;;;;;;;18.61;100.00;101724.25;7415555;19;20015;-80
2022/07/31 05:00:37;;;;;;;25.88;11.40;;;;;;;18.65;100.00;101733.06;7419450;19;20070;-79
2022/07/31 05:03:07;;;;;;;25.77;11.23;;;;;;;18.62;100.00;101719.81;7416330;19;20515;-81
2022/07/31 05:05:44;;;;;;;28.02;11.75;;;;;;;18.68;100.00;101733.06;7413237;19;20006;-79
2022/07/31 05:08:15;;;;;;;26.85;12.80;;;;;;;18.70;100.00;101730.41;7412883;19;20018;-82
2022/07/31 05:13:32;;;;;;;26.77;12.38;;;;;;;18.78;100.00;101729.41;7406699;19;20014;-78
2022/07/31 05:16:03;;;;;;;31.88;12.38;;;;;;;18.81;100.00;101721.44;7405436;19;20019;-79
2022/07/31 05:18:34;;;;;;;32.17;12.98;;;;;;;18.82;100.00;101720.53;7403570;19;20284;-79
2022/07/31 05:21:07;;;;;;;26.98;12.05;;;;;;;18.87;100.00;101717.84;7408184;19;20036;-79
2022/07/31 05:23:38;;;;;;;35.78;12.82;;;;;;;18.87;100.00;101728.47;7408492;19;20020;-78
2022/07/31 05:26:11;;;;;;;32.63;12.27;;;;;;;18.92;100.00;101729.34;7409335;19;20014;-79
2022/07/31 05:28:42;;;;;;;29.75;14.10;;;;;;;18.92;100.00;101724.91;7406783;19;20016;-79
2022/07/31 05:31:15;;;;;;;34.13;13.55;;;;;;;18.98;100.00;101723.97;7408356;19;20048;-79
2022/07/31 05:33:46;;;;;;;30.48;14.93;;;;;;;18.92;100.00;101718.69;7406511;19;20038;-80
2022/07/31 05:36:21;;;;;;;30.65;13.90;;;;;;;18.95;100.00;101729.31;7407554;19;20025;-79
2022/07/31 05:38:53;;;;;;;26.55;13.70;;;;;;;18.97;100.00;101724.88;7413907;19;20036;-80
2022/07/31 05:41:26;;;;;;;35.67;14.73;;;;;;;18.98;100.00;101723.97;7410995;19;19998;-78
2022/07/31 05:43:59;;;;;;;31.98;13.70;;;;;;;19.01;100.00;101723.94;7410490;19;20031;-78
2022/07/31 05:46:29;;;;;;;36.97;15.55;;;;;;;19.05;100.00;101720.38;7408330;19;20011;-79
2022/07/31 05:49:02;;;;;;;33.75;16.35;;;;;;;19.03;100.00;101722.16;7406545;19;20018;-79
2022/07/31 05:51:52;;;;;;;36.38;15.20;;;;;;;19.03;100.00;101722.16;7403654;19;20403;-80
2022/07/31 05:54:23;;;;;;;;;;;;;;;19.09;100.00;101718.56;7402742;19;20010;-78
2022/07/31 05:56:56;;;;;;;36.60;16.23;;;;;;;19.06;100.00;101718.59;7407953;19;19911;-79
2022/07/31 05:59:27;;;;;;;36.67;17.92;;;;;;;19.05;100.00;101707.09;7411405;19;20031;-78
2022/07/31 06:01:59;;;;;;;30.63;15.23;;;;;;;19.10;100.00;101713.25;7408266;19;20469;-79
2022/07/31 06:04:29;;;;;;;34.95;15.55;;;;;;;19.14;100.00;101714.09;7409990;19;20003;-77
2022/07/31 06:07:09;;;;;;;40.20;17.15;;;;;;;19.19;100.00;101715.81;7403322;19;20011;-78
2022/07/31 06:09:40;;;;;;;37.58;18.30;;;;;;;19.27;100.00;101716.66;7402484;19;19999;-79
2022/07/31 06:12:12;;;;;;;36.95;16.20;;;;;;;19.39;100.00;101725.41;7399617;19;20043;-78
2022/07/31 06:14:43;;;;;;;;;;;;;;;19.27;100.00;101726.41;7404686;19;20007;-78
2022/07/31 06:17:14;;;;;;;34.85;16.48;;;;;;;19.32;100.00;101724.59;7400151;19;19922;-77
2022/07/31 06:19:45;;;;;;;40.42;18.70;;;;;;;19.33;100.00;101725.47;7407199;19;20018;-77
2022/07/31 06:22:24;;;;;;;45.92;18.17;;;;;;;19.40;100.00;101728.06;7404844;19;20100;-78
2022/07/31 06:24:54;;;;;;;37.45;17.10;;;;;;;19.37;100.00;101728.09;7400574;19;20019;-79
2022/07/31 06:27:25;;;;;;;41.80;19.23;;;;;;;19.39;100.00;101725.41;7397185;19;20983;-77
2022/07/31 06:30:04;;;;;;;36.55;17.55;;;;;;;19.51;100.00;101725.31;7235883;19;74142;-78
2022/07/31 06:32:37;;;;;;;38.92;16.92;;;;;;;19.56;100.00;101724.41;7402254;19;20047;-79
2022/07/31 06:35:09;;;;;;;;;;;;;;;19.58;100.00;101719.06;7408831;19;20362;-80
2022/07/31 06:37:42;;;;;;;41.53;18.98;;;;;;;19.56;100.00;101718.19;7414653;19;19910;-79
2022/07/31 06:40:15;;;;;;;37.67;18.30;;;;;;;19.71;100.00;101725.13;7410879;19;20015;-80
2022/07/31 06:42:47;;;;;;;41.00;20.08;;;;;;;19.71;100.00;101723.38;7405305;19;20352;-81
2022/07/31 06:45:29;;;;;;;37.72;18.10;;;;;;;19.75;100.00;101714.44;7406394;19;20539;-81
2022/07/31 06:48:20;;;;;;;39.30;19.38;;;;;;;19.83;100.00;101720.53;7396917;19;20067;-78
2022/07/31 06:50:51;;;;;;;40.20;19.67;;;;;;;19.95;100.00;101722.19;7410857;19;20058;-79
2022/07/31 06:53:44;;;;;;;37.50;19.92;;;;;;;19.90;100.00;101708.91;7408567;19;20003;-81
2022/07/31 06:56:14;;;;;;;40.58;20.08;;;;;;;20.05;100.00;101712.31;7406817;19;20022;-80
2022/07/31 06:58:47;;;;;;;37.35;19.60;;;;;;;20.11;100.00;101707.78;7404496;19;20010;-79
2022/07/31 07:01:18;;;;;;;36.92;17.58;;;;;;;20.20;100.00;101722.78;7397683;19;20006;-78
2022/07/31 07:03:49;;;;;;;43.70;19.70;;;;;;;20.26;100.00;101714.72;7397186;19;20354;-78
2022/07/31 07:06:20;;;;;;;33.80;18.73;;;;;;;20.25;100.00;101720.94;7402504;19;20367;-77
2022/07/31 07:08:54;;;;;;;35.92;17.58;;;;;;;20.25;100.00;101720.94;7393591;19;20044;-76
2022/07/31 07:11:26;;;;;;;40.35;19.10;;;;;;;20.22;100.00;101724.50;7398739;19;20014;-77
2022/07/31 07:13:56;;;;;;;38.17;20.23;;;;;;;20.03;100.00;101719.44;7397329;19;20045;-78
2022/07/31 07:16:27;;;;;;;41.72;19.38;;;;;;;20.14;100.00;101712.19;7398798;19;20052;-78
2022/07/31 07:19:04;;;;;;;32.58;18.80;;;;;;;20.25;100.00;101719.16;7399980;19;20015;-78
2022/07/31 07:21:35;;;;;;;34.97;18.05;;;;;;;20.23;100.00;101707.63;7398519;19;20011;-79
2022/07/31 07:24:09;;;;;;;34.88;16.65;;;;;;;20.22;100.00;101712.97;7404021;19;20014;-81
2022/07/31 07:26:41;;;;;;;43.45;19.88;;;;;;;20.17;100.00;101713.03;7403785;19;20014;-76
2022/07/31 07:29:18;;;;;;;39.80;21.23;;;;;;;20.16;100.00;101705.06;7400834;19;20014;-78
2022/07/31 07:31:48;;;;;;;36.63;20.17;;;;;;;20.18;100.00;101703.25;7393335;19;20203;-79
2022/07/31 07:34:24;;;;;;;37.50;20.10;;;;;;;20.20;100.00;101701.47;7394522;19;20050;-77
2022/07/31 07:36:56;;;;;;;40.90;20.65;;;;;;;20.25;100.00;101700.50;7393604;19;20022;-77
2022/07/31 07:39:37;;;;;;;41.70;21.38;;;;;;;20.12;100.00;101701.56;7399449;19;20015;-77
2022/07/31 07:42:07;;;;;;;35.42;19.80;;;;;;;20.20;100.00;101702.34;7401499;19;20039;-77
2022/07/31 07:44:37;;;;;;;36.40;22.90;;;;;;;20.04;100.00;101697.22;7393157;19;20010;-79
2022/07/31 07:47:10;;;;;;;41.30;21.75;;;;;;;20.12;100.00;101692.69;7393398;19;20006;-79
2022/07/31 07:49:44;;;;;;;38.80;21.58;;;;;;;20.19;100.00;101697.03;7397088;19;20017;-79
2022/07/31 07:52:21;;;;;;;40.70;22.42;;;;;;;20.20;100.00;101706.78;7396680;19;20411;-81
2022/07/31 07:54:54;;;;;;;40.05;21.27;;;;;;;20.12;100.00;101703.34;7402380;19;20010;-75
2022/07/31 07:57:25;;;;;;;38.00;20.75;;;;;;;20.09;100.00;101708.72;7397756;19;20031;-77
2022/07/31 07:59:56;;;;;;;37.90;19.45;;;;;;;20.08;100.00;101704.28;7391946;19;20006;-78
2022/07/31 08:02:27;;;;;;;43.72;22.55;;;;;;;20.13;100.00;101705.09;7393895;19;20040;-78
2022/07/31 08:05:03;;;;;;;38.58;21.95;;;;;;;20.11;100.00;101706.91;7398154;19;20010;-79
2022/07/31 08:07:36;;;;;;;41.05;20.30;;;;;;;20.14;100.00;101707.75;7398870;19;20014;-80
2022/07/31 08:10:18;;;;;;;35.53;19.92;;;;;;;20.13;100.00;101695.34;7401307;19;20117;-77
2022/07/31 08:12:53;;;;;;;38.55;20.35;;;;;;;20.23;100.00;101698.75;7393942;19;20707;-77
2022/07/31 08:15:24;;;;;;;34.72;18.85;;;;;;;20.13;100.00;101699.78;7387283;19;20029;-77
2022/07/31 08:17:56;;;;;;;36.15;19.33;;;;;;;20.29;100.00;101690.69;7399229;19;20150;-77
2022/07/31 08:20:26;;;;;;;34.55;19.73;;;;;;;20.13;100.00;101691.78;7400201;19;20007;-75
2022/07/31 08:22:57;;;;;;;33.33;19.67;;;;;;;20.19;100.00;101694.38;7402602;19;20006;-78
2022/07/31 08:25:38;;;;;;;36.78;20.58;;;;;;;20.40;100.00;101688.78;7402217;19;20010;-78
2022/07/31 08:28:18;;;;;;;33.70;19.77;;;;;;;20.36;100.00;101691.50;7398577;19;20022;-78
2022/07/31 08:30:54;;;;;;;34.45;19.92;;;;;;;20.27;100.00;101692.50;7396815;19;20014;-82
2022/07/31 08:33:26;;;;;;;33.30;19.77;;;;;;;20.30;100.00;101692.44;7413754;19;20037;-83
2022/07/31 08:35:59;;;;;;;30.88;18.60;;;;;;;20.31;100.00;101696.00;7417070;19;20019;-81
2022/07/31 08:38:30;;;;;;;33.50;17.83;;;;;;;20.28;100.00;101696.91;7418079;19;20010;-82
2022/07/31 08:41:03;;;;;;;28.08;16.67;;;;;;;20.27;100.00;101695.16;7413406;19;20027;-80
2022/07/31 08:43:33;;;;;;;;;;;;;;;20.29;100.00;101703.13;7396746;19;20043;-77
2022/07/31 08:46:28;;;;;;;29.05;16.52;;;;;;;20.24;100.00;101703.19;7390291;19;19911;-76
2022/07/31 08:49:02;;;;;;;29.15;17.17;;;;;;;20.05;100.00;101696.31;7391454;19;20019;-77
2022/07/31 08:51:36;;;;;;;30.35;19.92;;;;;;;19.95;100.00;101700.00;7398180;19;20048;-75
2022/07/31 08:54:22;;;;;;;29.42;19.55;;;;;;;19.93;100.00;101698.25;7391097;19;20044;-78
2022/07/31 08:56:55;;;;;;;37.47;19.80;;;;;;;20.03;100.00;101703.47;7395236;19;20015;-77
2022/07/31 08:59:28;;;;;;;45.78;23.55;;;;;;;20.05;100.00;101696.31;7394217;19;20018;-78
2022/07/31 09:02:03;;;;;;;41.05;23.23;;;;;;;20.12;100.00;101698.91;7415002;19;20012;-80
2022/07/31 09:04:35;;;;;;;43.22;24.02;;;;;;;19.99;100.00;101702.59;7418389;19;20022;-81
2022/07/31 09:07:12;;;;;;;40.60;23.98;;;;;;;20.12;100.00;101698.03;7415037;19;20020;-82
2022/07/31 09:09:44;;;;;;;43.22;24.98;;;;;;;20.05;100.00;101699.00;7406648;19;20014;-82
2022/07/31 09:12:34;;;;;;;46.28;25.30;;;;;;;20.08;100.00;101688.31;7411740;19;20002;-80
2022/07/31 09:15:06;;;;;;;44.65;25.63;;;;;;;20.04;100.00;101689.25;7412638;19;20011;-81
2022/07/31 09:17:38;;;;;;;48.22;25.70;;;;;;;20.14;100.00;101685.56;7396458;19;20011;-77
2022/07/31 09:20:23;;;;;;;45.47;24.15;;;;;;;20.13;100.00;101699.78;7398962;19;20100;-77
2022/07/31 09:23:05;;;;;;;45.70;24.40;;;;;;;20.10;100.00;101689.16;7403699;19;20025;-79
2022/07/31 09:25:38;;;;;;;36.97;21.75;;;;;;;20.13;100.00;101684.69;7408661;19;20019;-80
2022/07/31 09:28:12;;;;;;;42.13;23.38;;;;;;;20.14;100.00;101696.22;7405326;19;20010;-81
2022/07/31 09:30:57;;;;;;;39.80;23.58;;;;;;;20.09;100.00;101684.75;7400293;19;20014;-77
2022/07/31 09:33:30;;;;;;;40.45;23.50;;;;;;;20.03;100.00;101691.03;7394713;19;20066;-77
2022/07/31 09:36:04;;;;;;;39.07;23.70;;;;;;;20.09;100.00;101687.41;7396309;19;20014;-76
2022/07/31 09:38:37;;;;;;;44.25;22.52;;;;;;;19.97;100.00;101692.88;7395044;19;20803;-76
2022/07/31 09:41:12;;;;;;;40.75;24.15;;;;;;;19.96;100.00;101696.44;7392575;19;20011;-75
2022/07/31 09:44:07;;;;;;;39.42;22.77;;;;;;;19.84;100.00;101698.34;7394827;19;20122;-74
2022/07/31 09:46:44;;;;;;;38.55;21.90;;;;;;;19.80;100.00;101695.72;7389771;19;20025;-77
2022/07/31 09:49:17;;;;;;;39.65;22.75;;;;;;;19.78;100.00;101690.44;7384894;19;20010;-78
2022/07/31 09:51:48;;;;;;;37.88;20.20;;;;;;;19.75;100.00;101690.50;7381970;19;20463;-77
2022/07/31 09:54:23;;;;;;;36.83;21.13;;;;;;;19.72;100.00;101693.19;7382901;19;20010;-79
2022/07/31 09:56:56;;;;;;;35.40;19.67;;;;;;;19.75;100.00;101694.94;7385592;19;20017;-77
2022/07/31 09:59:29;;;;;;;38.67;19.92;;;;;;;19.69;100.00;101692.34;7382922;19;21036;-78
2022/07/31 10:02:02;;;;;;;37.78;19.10;;;;;;;19.64;100.00;101689.72;7385995;19;20036;-77
2022/07/31 10:04:33;;;;;;;39.08;20.42;;;;;;;19.58;100.00;101684.47;7389623;19;20010;-79
2022/07/31 10:07:06;;;;;;;33.13;19.95;;;;;;;19.61;100.00;101687.09;7390286;19;20011;-79
2022/07/31 10:09:41;;;;;;;36.40;17.98;;;;;;;19.61;100.00;101679.13;7387463;19;20018;-78
2022/07/31 10:12:17;;;;;;;33.53;17.45;;;;;;;19.63;100.00;101692.41;7385706;19;20007;-79
2022/07/31 10:14:56;;;;;;;34.60;18.02;;;;;;;19.67;100.00;101689.69;7388296;19;20157;-77
2022/07/31 10:17:35;;;;;;;32.50;17.88;;;;;;;19.61;100.00;101694.19;7383506;19;20007;-76
2022/07/31 10:20:09;;;;;;;36.25;17.67;;;;;;;19.61;100.00;101687.09;7382200;19;20033;-77
2022/07/31 10:22:42;;;;;;;;;;;;;;;19.68;100.00;101695.91;7387392;19;20021;-77
2022/07/31 10:25:18;;;;;;;30.47;17.07;;;;;;;19.72;100.00;101686.97;7384572;19;20389;-75
2022/07/31 10:27:50;;;;;;;28.73;14.00;;;;;;;19.70;100.00;101681.69;7381050;19;20290;-76
2022/07/31 10:30:27;;;;;;;22.92;13.05;;;;;;;19.67;100.00;101695.03;7383988;19;20509;-77
2022/07/31 10:33:00;;;;;;;23.60;12.07;;;;;;;19.73;100.00;101688.75;7386584;19;20034;-76
2022/07/31 10:35:36;;;;;;;22.80;12.02;;;;;;;19.70;100.00;101679.00;7382149;19;20018;-75
2022/07/31 10:38:13;;;;;;;21.20;10.85;;;;;;;19.63;100.00;101679.97;7386843;19;20011;-78
2022/07/31 10:40:48;;;;;;;21.75;9.60;;;;;;;19.78;100.00;101681.56;7389154;19;20010;-77
2022/07/31 10:43:32;;;;;;;22.27;10.20;;;;;;;19.70;100.00;101684.34;7389538;19;20016;-80
2022/07/31 10:46:05;;;;;;;20.67;8.52;;;;;;;19.78;100.00;101682.44;7389409;19;20010;-78
2022/07/31 10:48:36;;;;;;;16.88;7.93;;;;;;;19.82;100.00;101681.50;7391522;19;20046;-78
2022/07/31 10:51:13;;;;;;;19.95;8.70;;;;;;;19.79;100.00;101678.00;7386571;19;20451;-78
2022/07/31 10:53:55;;;;;;;20.92;9.25;;;;;;;19.78;100.00;101676.22;7385192;19;20018;-79
2022/07/31 10:56:42;;;;;;;16.35;8.75;;;;;;;19.77;100.00;101669.16;7388293;19;20547;-78
2022/07/31 10:59:18;;;;;;;20.25;9.10;;;;;;;19.71;100.00;101672.78;7392020;19;20015;-76
2022/07/31 11:01:54;;;;;;;21.27;9.18;;;;;;;19.63;100.00;101685.31;7395355;19;20010;-77
2022/07/31 11:04:31;;;;;;;20.27;9.35;;;;;;;19.65;100.00;101670.19;7390671;19;20014;-78
2022/07/31 11:07:18;;;;;;;19.70;10.05;;;;;;;19.58;100.00;101668.50;7384805;19;20048;-77
2022/07/31 11:09:51;;;;;;;23.52;10.88;;;;;;;19.57;100.00;101680.94;7382911;19;20011;-77
2022/07/31 11:12:23;;;;;;;25.07;10.93;;;;;;;19.68;100.00;101675.50;7382213;19;20574;-79
2022/07/31 11:14:59;;;;;;;22.00;11.95;;;;;;;19.84;100.00;101665.53;7382870;19;20057;-79
2022/07/31 11:17:38;;;;;;;23.27;11.85;;;;;;;20.02;100.00;101670.63;7383240;19;20010;-77
2022/07/31 11:20:30;;;;;;;24.55;10.98;;;;;;;20.13;100.00;101662.50;7386872;19;20053;-77
2022/07/31 11:23:08;;;;;;;22.90;11.52;;;;;;;20.21;100.00;101663.28;7388406;19;20108;-75
2022/07/31 11:25:41;;;;;;;22.45;10.65;;;;;;;20.32;100.00;101658.69;7387262;19;20010;-78
2022/07/31 11:28:22;;;;;;;27.55;10.65;;;;;;;20.38;100.00;101663.97;7383244;19;20024;-77
2022/07/31 11:30:55;;;;;;;25.48;10.25;;;;;;;20.35;100.00;101660.44;7387164;19;20010;-78
2022/07/31 11:33:40;;;;;;;21.00;9.33;;;;;;;20.38;100.00;101660.38;7385781;19;20010;-76
2022/07/31 11:36:16;;;;;;;18.73;9.48;;;;;;;20.44;100.00;101663.88;7393633;19;20010;-77
2022/07/31 11:38:48;;;;;;;16.20;8.68;;;;;;;20.47;100.00;101660.28;7391048;19;20066;-76
2022/07/31 11:41:20;;;;;;;17.53;8.07;;;;;;;20.50;100.00;101663.78;7385523;19;20021;-75
2022/07/31 11:43:57;;;;;;;18.92;8.10;;;;;;;20.50;100.00;101660.25;7382591;19;20267;-78